Time;durP1;ratioP1;P1;durP2;ratioP2;P2;SDS_P1;SDS_P2;PMS_P1;PMS_P2;Temp;Humidity;BMP_temperature;BMP_pressure;BME280_temperature;BME280_humidity;BME280_pressure;Samples;Min_cycle;Max_cycle;Signal;HPM_P1;HPM_P2
2020/12/19 00:01:09;;;;;;;7.43;3.00;;;4.20;99.90;;;;;;5066972;28;20032;-78
2020/12/19 00:03:34;;;;;;;6.45;2.88;;;4.10;99.90;;;;;;5067213;28;20033;-79
2020/12/19 00:06:00;;;;;;;11.90;3.30;;;4.10;99.90;;;;;;5066932;28;20021;-78
2020/12/19 00:08:25;;;;;;;5.85;3.67;;;4.10;99.90;;;;;;5068073;28;20025;-79
2020/12/19 00:10:51;;;;;;;8.98;2.97;;;4.10;99.90;;;;;;5066759;28;20093;-79
2020/12/19 00:13:17;;;;;;;4.07;2.42;;;4.10;99.90;;;;;;5066719;28;20032;-77
2020/12/19 00:15:42;;;;;;;5.88;3.05;;;4.10;99.90;;;;;;5066722;28;20025;-78
2020/12/19 00:18:08;;;;;;;6.32;3.20;;;4.10;99.90;;;;;;5067578;28;20036;-79
2020/12/19 00:20:33;;;;;;;3.80;2.63;;;4.10;99.90;;;;;;5066443;28;20021;-78
2020/12/19 00:22:59;;;;;;;5.15;3.30;;;4.00;99.90;;;;;;5067772;28;20017;-79
2020/12/19 00:25:24;;;;;;;7.03;3.13;;;4.10;99.90;;;;;;5066390;28;20107;-79
2020/12/19 00:27:50;;;;;;;10.55;4.00;;;4.00;99.90;;;;;;5067649;28;20028;-78
2020/12/19 00:30:16;;;;;;;6.30;3.50;;;4.00;99.90;;;;;;5066483;28;20119;-79
2020/12/19 00:32:42;;;;;;;5.90;2.80;;;4.00;99.90;;;;;;5066037;28;20052;-78
2020/12/19 00:35:09;;;;;;;7.53;3.78;;;4.00;99.90;;;;;;5066144;28;20021;-78
2020/12/19 00:37:42;;;;;;;6.75;3.22;;;4.00;99.90;;;;;;5067306;28;20191;-79
2020/12/19 00:40:09;;;;;;;4.22;2.50;;;4.00;99.90;;;;;;5067393;28;20051;-78
2020/12/19 00:42:39;;;;;;;7.82;3.72;;;3.90;99.90;;;;;;5067393;28;20029;-79
2020/12/19 00:45:06;;;;;;;7.75;2.85;;;3.90;99.90;;;;;;5065956;28;20025;-79
2020/12/19 00:47:38;;;;;;;7.25;3.25;;;4.00;99.90;;;;;;5065879;28;20017;-79
2020/12/19 00:50:06;;;;;;;6.82;3.30;;;3.90;99.90;;;;;;5067253;28;20017;-78
2020/12/19 00:52:32;;;;;;;5.75;2.75;;;3.90;99.90;;;;;;5067229;28;20040;-78
2020/12/19 00:54:58;;;;;;;7.75;3.47;;;3.90;99.90;;;;;;5065961;28;20021;-79
2020/12/19 00:57:27;;;;;;;5.95;3.15;;;3.90;99.90;;;;;;5065766;28;20031;-78
2020/12/19 00:59:53;;;;;;;7.00;3.88;;;3.90;99.90;;;;;;5065707;28;20017;-78
2020/12/19 01:02:18;;;;;;;6.47;4.10;;;3.90;99.90;;;;;;5067181;28;20085;-79
2020/12/19 01:04:44;;;;;;;5.25;3.20;;;3.90;99.90;;;;;;5065610;28;20095;-80
2020/12/19 01:07:11;;;;;;;3.53;2.72;;;3.90;99.90;;;;;;5067272;28;20076;-78
2020/12/19 01:09:37;;;;;;;7.80;3.72;;;3.90;99.90;;;;;;5066963;28;20038;-78
2020/12/19 01:12:05;;;;;;;8.07;3.83;;;3.80;99.90;;;;;;5065336;28;20024;-79
2020/12/19 01:14:31;;;;;;;8.93;3.65;;;3.80;99.90;;;;;;5065432;28;20028;-79
2020/12/19 01:16:56;;;;;;;7.57;4.05;;;3.80;99.90;;;;;;5065281;28;20053;-79
2020/12/19 01:19:22;;;;;;;6.63;3.28;;;3.80;99.90;;;;;;5065317;28;20021;-79
2020/12/19 01:21:48;;;;;;;3.85;2.95;;;3.80;99.90;;;;;;5065530;28;20103;-79
2020/12/19 01:24:13;;;;;;;7.05;4.00;;;3.80;99.90;;;;;;5065299;28;20025;-79
2020/12/19 01:26:39;;;;;;;20.10;3.95;;;3.80;99.90;;;;;;5065360;28;20017;-79
2020/12/19 01:29:04;;;;;;;8.57;4.22;;;3.80;99.90;;;;;;5065255;28;20021;-79
2020/12/19 01:31:30;;;;;;;6.80;3.40;;;3.80;99.90;;;;;;5066351;28;20043;-79
2020/12/19 01:33:56;;;;;;;8.52;3.85;;;3.70;99.90;;;;;;5065238;28;20021;-79
2020/12/19 01:36:23;;;;;;;6.60;3.63;;;3.70;99.90;;;;;;5065148;28;20025;-79
2020/12/19 01:38:50;;;;;;;8.18;3.80;;;3.70;99.90;;;;;;5067829;28;20059;-78
2020/12/19 01:41:15;;;;;;;11.65;4.25;;;3.70;99.90;;;;;;5063645;28;20025;-78
2020/12/19 01:43:45;;;;;;;7.10;3.20;;;3.70;99.90;;;;;;5064615;28;20031;-79
2020/12/19 01:46:22;;;;;;;7.93;3.78;;;3.70;99.90;;;;;;5066601;28;20017;-78
2020/12/19 01:48:49;;;;;;;5.72;3.15;;;3.70;99.90;;;;;;5059810;28;20017;-79
2020/12/19 01:51:14;;;;;;;15.27;5.15;;;3.70;99.90;;;;;;5058582;28;20025;-78
2020/12/19 01:53:40;;;;;;;7.22;4.28;;;3.60;99.90;;;;;;5063558;28;20445;-79
2020/12/19 01:56:09;;;;;;;8.18;3.80;;;3.60;99.90;;;;;;5056994;28;20047;-78
2020/12/19 01:58:35;;;;;;;10.52;4.45;;;3.60;99.90;;;;;;5064227;28;20105;-78
2020/12/19 02:01:02;;;;;;;9.77;5.22;;;3.70;99.90;;;;;;5064432;28;20025;-79
2020/12/19 02:03:28;;;;;;;13.90;5.05;;;3.60;99.90;;;;;;5062950;28;20087;-79
2020/12/19 02:05:54;;;;;;;7.97;4.43;;;3.60;99.90;;;;;;5065156;28;20469;-78
2020/12/19 02:08:20;;;;;;;8.95;4.07;;;3.60;99.90;;;;;;5064069;28;20066;-79
2020/12/19 02:10:46;;;;;;;14.65;5.00;;;3.60;99.90;;;;;;5063088;28;20450;-78
2020/12/19 02:13:11;;;;;;;7.93;4.45;;;3.60;99.90;;;;;;5063804;28;20025;-78
2020/12/19 02:15:45;;;;;;;9.48;5.28;;;3.70;99.90;;;;;;5063260;28;20070;-78
2020/12/19 02:18:11;;;;;;;11.10;5.07;;;3.50;99.90;;;;;;5060713;28;20029;-78
2020/12/19 02:20:37;;;;;;;7.68;4.00;;;3.50;99.90;;;;;;5064356;28;20031;-78
2020/12/19 02:23:05;;;;;;;8.95;5.43;;;3.50;99.90;;;;;;5064219;28;20028;-78
2020/12/19 02:25:32;;;;;;;10.73;5.30;;;3.50;99.90;;;;;;5064051;28;20021;-78
2020/12/19 02:28:01;;;;;;;9.95;4.75;;;3.50;99.90;;;;;;5065419;28;20017;-79
2020/12/19 02:30:26;;;;;;;11.20;5.72;;;3.50;99.90;;;;;;5065535;28;20053;-79
2020/12/19 02:32:52;;;;;;;12.60;5.30;;;3.50;99.90;;;;;;5064108;28;20021;-78
2020/12/19 02:35:18;;;;;;;19.23;6.30;;;3.40;99.90;;;;;;5064245;28;20036;-78
2020/12/19 02:37:43;;;;;;;13.57;5.00;;;3.40;99.90;;;;;;5063905;28;20469;-79
2020/12/19 02:40:09;;;;;;;9.70;5.05;;;3.40;99.90;;;;;;5063873;28;20056;-77
2020/12/19 02:42:34;;;;;;;10.85;6.82;;;3.40;99.90;;;;;;5064985;28;20017;-78
2020/12/19 02:45:00;;;;;;;9.88;4.80;;;3.40;99.90;;;;;;5063709;28;20025;-78
2020/12/19 02:47:25;;;;;;;11.85;6.13;;;3.40;99.90;;;;;;5063779;28;20024;-79
2020/12/19 02:49:51;;;;;;;11.15;5.18;;;3.40;99.90;;;;;;5065060;28;20025;-78
2020/12/19 02:52:17;;;;;;;12.20;5.07;;;3.40;99.90;;;;;;5064011;28;20103;-78
2020/12/19 02:54:42;;;;;;;11.23;5.30;;;3.40;99.90;;;;;;5064792;28;20075;-78
2020/12/19 02:57:08;;;;;;;15.02;6.53;;;3.40;99.90;;;;;;5063433;28;20532;-77
2020/12/19 02:59:33;;;;;;;12.65;6.47;;;3.30;99.90;;;;;;5064911;28;20029;-78
2020/12/19 03:01:59;;;;;;;13.25;5.72;;;3.40;99.90;;;;;;5063431;28;20009;-78
2020/12/19 03:04:24;;;;;;;10.88;5.13;;;3.30;99.90;;;;;;5063057;28;20055;-79
2020/12/19 03:06:50;;;;;;;11.10;5.35;;;3.30;99.90;;;;;;5064950;28;20028;-79
2020/12/19 03:09:18;;;;;;;13.20;7.00;;;3.40;99.90;;;;;;5063736;28;20021;-78
2020/12/19 03:11:44;;;;;;;10.60;5.80;;;3.30;99.90;;;;;;5064919;28;20080;-78
2020/12/19 03:14:09;;;;;;;11.57;5.72;;;3.30;99.90;;;;;;5063362;28;20032;-78
2020/12/19 03:16:35;;;;;;;10.98;5.35;;;3.30;99.90;;;;;;5064734;28;20025;-78
2020/12/19 03:19:00;;;;;;;12.35;5.47;;;3.30;99.90;;;;;;5064250;28;20059;-78
2020/12/19 03:21:26;;;;;;;10.45;5.50;;;3.40;99.90;;;;;;5062582;28;20035;-78
2020/12/19 03:23:51;;;;;;;9.95;5.32;;;3.30;99.90;;;;;;5063253;28;20484;-78
2020/12/19 03:26:17;;;;;;;12.18;6.32;;;3.30;99.90;;;;;;5063603;28;20029;-77
2020/12/19 03:28:43;;;;;;;13.85;6.72;;;3.30;99.90;;;;;;5063219;28;20051;-77
2020/12/19 03:31:09;;;;;;;12.52;6.45;;;3.30;99.90;;;;;;5063219;28;20024;-78
2020/12/19 03:33:34;;;;;;;10.98;5.80;;;3.30;99.90;;;;;;5063084;28;20053;-78
2020/12/19 03:36:00;;;;;;;14.85;5.47;;;3.30;99.90;;;;;;5064386;28;20021;-78
2020/12/19 03:38:25;;;;;;;12.07;5.75;;;3.40;99.90;;;;;;5062945;28;20029;-78
2020/12/19 03:40:51;;;;;;;11.07;5.93;;;3.30;99.90;;;;;;5064317;28;20095;-79
2020/12/19 03:43:16;;;;;;;7.93;4.68;;;3.20;99.90;;;;;;5063089;28;20032;-78
2020/12/19 03:45:43;;;;;;;16.17;7.20;;;3.30;99.90;;;;;;5062870;28;20021;-78
2020/12/19 03:48:08;;;;;;;15.82;6.72;;;3.30;99.90;;;;;;5064152;28;20125;-78
2020/12/19 03:50:34;;;;;;;13.75;6.57;;;3.20;99.90;;;;;;5062882;28;20029;-78
2020/12/19 03:52:59;;;;;;;14.63;7.07;;;3.20;99.90;;;;;;5062901;28;20059;-78
2020/12/19 03:55:25;;;;;;;14.02;6.07;;;3.20;99.90;;;;;;5063072;28;20028;-78
2020/12/19 03:57:51;;;;;;;13.95;6.13;;;3.20;99.90;;;;;;5062595;28;20379;-78
2020/12/19 04:00:16;;;;;;;13.10;6.63;;;3.10;99.90;;;;;;5062937;28;20025;-78
2020/12/19 04:02:42;;;;;;;16.05;7.05;;;3.20;99.90;;;;;;5062900;28;20029;-78
2020/12/19 04:05:10;;;;;;;10.27;6.63;;;3.20;99.90;;;;;;5062152;28;20049;-78
2020/12/19 04:07:37;;;;;;;12.57;7.10;;;3.20;99.90;;;;;;5062649;28;20028;-79
2020/12/19 04:10:04;;;;;;;16.77;7.28;;;3.20;99.90;;;;;;5062777;28;20117;-79
2020/12/19 04:12:30;;;;;;;17.83;7.68;;;3.20;99.90;;;;;;5064181;28;20057;-78
2020/12/19 04:14:55;;;;;;;14.40;6.53;;;3.20;99.90;;;;;;5063105;28;20365;-79
2020/12/19 04:17:21;;;;;;;14.55;7.22;;;3.20;99.90;;;;;;5063794;28;20037;-78
2020/12/19 04:19:47;;;;;;;16.17;6.60;;;3.20;99.90;;;;;;5064022;28;20024;-78
2020/12/19 04:22:12;;;;;;;14.45;6.40;;;3.20;99.90;;;;;;5062761;28;20033;-78
2020/12/19 04:24:38;;;;;;;18.00;8.65;;;3.20;99.90;;;;;;5062279;28;20042;-78
2020/12/19 04:27:03;;;;;;;13.20;6.72;;;3.30;99.90;;;;;;5062600;28;20048;-79
2020/12/19 04:29:31;;;;;;;17.73;7.20;;;3.30;99.90;;;;;;5063796;28;20043;-79
2020/12/19 04:31:56;;;;;;;12.90;7.25;;;3.20;99.90;;;;;;5063856;28;20080;-80
2020/12/19 04:34:23;;;;;;;13.30;6.40;;;3.30;99.90;;;;;;5067401;28;20025;-79
2020/12/19 04:36:49;;;;;;;13.38;6.53;;;3.30;99.90;;;;;;5067543;28;20055;-79
2020/12/19 04:39:15;;;;;;;13.30;6.47;;;3.20;99.90;;;;;;5066348;28;20033;-79
2020/12/19 04:41:41;;;;;;;18.05;7.57;;;3.20;99.90;;;;;;5065954;28;20025;-79
2020/12/19 04:44:07;;;;;;;16.65;7.75;;;3.20;99.90;;;;;;5067306;28;20425;-79
2020/12/19 04:46:39;;;;;;;12.30;7.18;;;3.20;99.90;;;;;;5065986;28;20070;-79
2020/12/19 04:49:05;;;;;;;16.00;7.32;;;3.20;99.90;;;;;;5067254;28;20013;-80
2020/12/19 04:51:32;;;;;;;14.32;6.45;;;3.20;99.90;;;;;;5065996;28;20079;-79
2020/12/19 04:53:57;;;;;;;15.70;7.13;;;3.20;99.90;;;;;;5065674;28;20108;-79
2020/12/19 04:56:24;;;;;;;20.45;9.00;;;3.20;99.90;;;;;;5066144;28;20028;-79
2020/12/19 04:58:55;;;;;;;12.13;6.18;;;3.20;99.90;;;;;;5065697;28;20037;-80
2020/12/19 05:01:21;;;;;;;13.77;7.72;;;3.20;99.90;;;;;;5065916;28;20021;-80
2020/12/19 05:03:51;;;;;;;19.05;8.70;;;3.20;99.90;;;;;;5065376;28;20032;-79
2020/12/19 05:06:18;;;;;;;19.33;7.53;;;3.20;99.90;;;;;;5067235;28;20112;-79
2020/12/19 05:08:43;;;;;;;12.25;7.68;;;3.20;99.90;;;;;;5067013;28;20021;-79
2020/12/19 05:11:12;;;;;;;15.15;7.80;;;3.20;99.90;;;;;;5066850;28;20017;-79
2020/12/19 05:13:39;;;;;;;14.75;7.75;;;3.20;99.90;;;;;;5066534;28;20029;-79
2020/12/19 05:16:05;;;;;;;16.13;7.78;;;3.20;99.90;;;;;;5065504;28;20031;-80
2020/12/19 05:18:31;;;;;;;15.68;6.57;;;3.20;99.90;;;;;;5066405;28;20096;-80
2020/12/19 05:20:56;;;;;;;14.77;8.23;;;3.10;99.90;;;;;;5065292;28;20504;-80
2020/12/19 05:23:23;;;;;;;16.10;7.85;;;3.20;99.90;;;;;;5066747;28;20025;-79
2020/12/19 05:25:49;;;;;;;10.63;6.85;;;3.10;99.90;;;;;;5066723;28;20094;-79
2020/12/19 05:28:15;;;;;;;19.42;8.00;;;3.10;99.90;;;;;;5065506;28;20033;-79
2020/12/19 05:30:41;;;;;;;15.38;7.45;;;3.10;99.90;;;;;;5065165;28;20055;-78
2020/12/19 05:33:06;;;;;;;12.73;7.13;;;3.10;99.90;;;;;;5066435;28;20109;-79
2020/12/19 05:35:34;;;;;;;18.13;8.70;;;3.10;99.90;;;;;;5066493;28;20067;-79
2020/12/19 05:38:05;;;;;;;15.98;7.80;;;3.10;99.90;;;;;;5066384;28;20438;-79
2020/12/19 05:40:33;;;;;;;14.27;6.72;;;3.10;99.90;;;;;;5066377;28;20108;-79
2020/12/19 05:42:59;;;;;;;23.65;7.93;;;3.00;99.90;;;;;;5065103;28;20017;-79
2020/12/19 05:45:29;;;;;;;13.73;5.93;;;3.00;99.90;;;;;;5064131;28;20025;-79
2020/12/19 05:47:54;;;;;;;12.82;7.32;;;3.00;99.90;;;;;;5066315;28;20020;-79
2020/12/19 05:50:21;;;;;;;21.02;8.05;;;3.00;99.90;;;;;;5065086;28;20025;-80
2020/12/19 05:52:47;;;;;;;10.25;6.45;;;3.00;99.90;;;;;;5064951;28;20066;-79
2020/12/19 05:55:15;;;;;;;18.02;7.70;;;3.00;99.90;;;;;;5064753;28;20120;-79
2020/12/19 05:57:41;;;;;;;11.85;6.53;;;3.00;99.90;;;;;;5064403;28;20037;-78
2020/12/19 06:00:10;;;;;;;14.75;7.40;;;2.90;99.90;;;;;;5065905;28;20484;-78
2020/12/19 06:02:37;;;;;;;15.25;7.30;;;3.10;99.90;;;;;;5066071;28;20037;-78
2020/12/19 06:05:09;;;;;;;16.00;7.95;;;3.00;99.90;;;;;;5065642;28;20071;-80
2020/12/19 06:07:37;;;;;;;19.73;7.00;;;3.00;99.90;;;;;;5065608;28;20421;-78
2020/12/19 06:10:06;;;;;;;16.00;5.88;;;3.00;99.90;;;;;;5064662;28;20079;-78
2020/12/19 06:12:45;;;;;;;15.73;8.38;;;3.00;99.90;;;;;;5064363;28;20035;-78
2020/12/19 06:15:22;;;;;;;13.35;6.90;;;3.00;99.90;;;;;;5064368;28;20017;-79
2020/12/19 06:17:57;;;;;;;19.20;8.43;;;3.00;99.90;;;;;;5064193;28;20025;-78
2020/12/19 06:20:23;;;;;;;19.50;6.40;;;3.00;99.90;;;;;;5065779;28;20021;-78
2020/12/19 06:22:48;;;;;;;16.75;6.40;;;2.90;99.90;;;;;;5064702;28;20039;-80
2020/12/19 06:25:41;;;;;;;17.63;6.82;;;3.00;99.90;;;;;;5065901;28;20025;-78
2020/12/19 06:28:07;;;;;;;13.68;6.60;;;2.90;99.90;;;;;;5065355;28;20021;-78
2020/12/19 06:30:33;;;;;;;16.42;6.97;;;2.90;99.90;;;;;;5064243;28;20370;-78
2020/12/19 06:33:10;;;;;;;14.02;6.85;;;2.90;99.90;;;;;;5065502;28;20025;-78
2020/12/19 06:35:36;;;;;;;16.38;7.80;;;2.90;99.90;;;;;;5065125;28;20017;-78
2020/12/19 06:38:01;;;;;;;12.70;5.68;;;3.00;99.90;;;;;;5063978;28;20043;-79
2020/12/19 06:40:37;;;;;;;10.52;6.32;;;2.90;99.90;;;;;;5065017;28;20028;-79
2020/12/19 06:43:14;;;;;;;14.55;6.93;;;3.00;99.90;;;;;;5063895;28;20084;-79
2020/12/19 06:45:39;;;;;;;12.23;6.65;;;2.90;99.90;;;;;;5063713;28;20025;-79
2020/12/19 06:48:32;;;;;;;13.80;7.55;;;2.90;99.90;;;;;;5063466;28;20118;-79
2020/12/19 06:51:02;;;;;;;14.13;6.82;;;2.90;99.90;;;;;;5065103;28;20013;-79
2020/12/19 06:53:29;;;;;;;23.65;7.13;;;3.00;99.90;;;;;;5063451;28;20021;-78
2020/12/19 06:55:57;;;;;;;12.38;6.80;;;3.00;99.90;;;;;;5064792;28;20017;-78
2020/12/19 06:58:35;;;;;;;12.68;6.88;;;3.00;99.90;;;;;;5065149;28;20025;-79
2020/12/19 07:01:28;;;;;;;21.08;7.50;;;3.00;99.90;;;;;;5064002;28;20059;-78
2020/12/19 07:03:54;;;;;;;16.77;7.45;;;3.00;99.90;;;;;;5064424;28;20025;-78
2020/12/19 07:06:21;;;;;;;18.13;7.47;;;3.00;99.90;;;;;;5063273;28;20020;-82
2020/12/19 07:08:47;;;;;;;19.98;8.38;;;3.00;99.90;;;;;;5062656;28;20029;-82
2020/12/19 07:11:33;;;;;;;13.80;6.38;;;3.00;99.90;;;;;;5063209;28;20025;-78
2020/12/19 07:13:58;;;;;;;15.15;7.25;;;3.00;99.90;;;;;;5062932;28;20017;-78
2020/12/19 07:16:46;;;;;;;13.10;7.63;;;3.00;99.90;;;;;;5062592;28;20043;-78
2020/12/19 07:19:17;;;;;;;15.25;7.72;;;3.00;99.90;;;;;;5062001;28;20047;-78
2020/12/19 07:21:43;;;;;;;15.55;7.90;;;2.90;99.90;;;;;;5064435;28;20020;-78
2020/12/19 07:24:09;;;;;;;16.83;7.97;;;3.00;99.90;;;;;;5064445;28;20457;-78
2020/12/19 07:26:35;;;;;;;13.68;7.15;;;2.90;99.90;;;;;;5064494;28;20472;-79
2020/12/19 07:29:00;;;;;;;15.15;7.05;;;3.00;99.90;;;;;;5063117;28;20021;-79
2020/12/19 07:31:30;;;;;;;17.08;8.02;;;3.00;99.90;;;;;;5062849;28;20021;-79
2020/12/19 07:33:55;;;;;;;13.57;7.15;;;3.00;99.90;;;;;;5063662;28;20019;-79
2020/12/19 07:36:22;;;;;;;19.02;8.07;;;3.00;99.90;;;;;;5063074;28;20492;-79
2020/12/19 07:38:52;;;;;;;16.05;7.35;;;3.00;99.90;;;;;;5062995;28;20033;-79
2020/12/19 07:41:18;;;;;;;15.38;7.30;;;3.00;99.90;;;;;;5064005;28;20029;-79
2020/12/19 07:43:43;;;;;;;13.40;6.85;;;3.00;99.90;;;;;;5063943;28;20021;-79
2020/12/19 07:46:09;;;;;;;14.63;6.93;;;3.00;99.90;;;;;;5062754;28;20025;-80
2020/12/19 07:48:34;;;;;;;12.45;7.80;;;3.00;99.90;;;;;;5062535;28;20021;-79
2020/12/19 07:51:07;;;;;;;17.70;7.82;;;3.00;99.90;;;;;;5062491;28;20021;-78
2020/12/19 07:53:42;;;;;;;23.08;7.10;;;3.00;99.90;;;;;;5063904;28;20029;-79
2020/12/19 07:56:11;;;;;;;14.07;6.80;;;3.10;99.90;;;;;;5063753;28;20020;-79
2020/12/19 07:58:39;;;;;;;15.00;6.88;;;3.10;99.90;;;;;;5062977;28;20071;-78
2020/12/19 08:01:05;;;;;;;13.80;6.90;;;3.10;99.90;;;;;;5063152;28;20029;-80
2020/12/19 08:03:30;;;;;;;13.27;6.35;;;3.10;99.90;;;;;;5062594;28;20017;-80
2020/12/19 08:05:57;;;;;;;14.30;7.50;;;3.10;99.90;;;;;;5061989;28;20102;-80
2020/12/19 08:08:22;;;;;;;12.27;7.30;;;3.20;99.90;;;;;;5063195;28;20017;-79
2020/12/19 08:10:48;;;;;;;13.43;5.75;;;3.20;99.90;;;;;;5065871;28;20013;-78
2020/12/19 08:13:15;;;;;;;13.48;7.25;;;3.30;99.90;;;;;;5065739;28;20013;-78
2020/12/19 08:15:41;;;;;;;15.35;7.07;;;3.40;99.90;;;;;;5066373;28;20017;-79
2020/12/19 08:18:08;;;;;;;12.25;6.25;;;3.50;99.90;;;;;;5067557;28;20483;-79
2020/12/19 08:20:38;;;;;;;16.98;8.35;;;3.60;99.90;;;;;;5066252;28;20029;-78
2020/12/19 08:23:07;;;;;;;9.40;6.40;;;3.80;99.90;;;;;;5066587;28;20488;-79
2020/12/19 08:25:33;;;;;;;13.68;7.38;;;3.90;99.90;;;;;;5066303;28;20025;-78
2020/12/19 08:27:58;;;;;;;13.18;7.25;;;3.90;99.90;;;;;;5066472;28;20071;-79
2020/12/19 08:30:24;;;;;;;15.75;6.88;;;4.10;99.90;;;;;;5066610;28;20017;-79
2020/12/19 08:32:58;;;;;;;13.25;7.15;;;4.20;99.90;;;;;;5066685;28;20025;-80
2020/12/19 08:35:44;;;;;;;13.68;7.32;;;4.30;99.90;;;;;;5067523;28;20024;-80
2020/12/19 08:38:23;;;;;;;14.07;7.10;;;4.40;99.90;;;;;;5068210;28;20563;-79
2020/12/19 08:40:56;;;;;;;17.20;7.03;;;4.50;99.90;;;;;;5069121;28;20028;-81
2020/12/19 08:43:35;;;;;;;15.45;7.80;;;4.60;99.90;;;;;;5075350;28;20028;-79
2020/12/19 08:46:09;;;;;;;16.80;7.38;;;4.60;99.90;;;;;;5069324;28;20025;-79
2020/12/19 08:48:36;;;;;;;12.50;6.13;;;4.60;99.90;;;;;;5068574;28;20025;-78
2020/12/19 08:51:08;;;;;;;11.10;5.63;;;4.60;99.90;;;;;;5067911;28;20040;-79
2020/12/19 08:53:34;;;;;;;10.85;5.55;;;4.60;99.90;;;;;;5068412;28;20023;-77
2020/12/19 08:56:18;;;;;;;11.63;5.28;;;4.80;99.90;;;;;;5068283;28;20525;-79
2020/12/19 08:58:56;;;;;;;12.63;6.03;;;4.90;99.90;;;;;;5066501;28;20104;-79
2020/12/19 09:01:22;;;;;;;13.20;6.45;;;5.10;99.90;;;;;;5065845;28;20032;-80
2020/12/19 09:03:49;;;;;;;11.98;7.03;;;5.10;99.90;;;;;;5067091;28;20021;-79
2020/12/19 09:06:15;;;;;;;12.57;5.50;;;5.30;99.90;;;;;;5066151;28;20028;-78
2020/12/19 09:08:45;;;;;;;13.55;7.15;;;5.40;99.90;;;;;;5065625;28;20017;-78
2020/12/19 09:11:25;;;;;;;13.90;6.93;;;5.80;99.90;;;;;;5065548;28;20025;-78
2020/12/19 09:14:08;;;;;;;11.68;6.68;;;5.80;99.90;;;;;;5065540;28;20028;-78
2020/12/19 09:16:34;;;;;;;12.48;5.53;;;6.20;99.90;;;;;;5065371;28;20025;-77
2020/12/19 09:18:59;;;;;;;9.95;6.00;;;6.40;99.90;;;;;;5064021;28;20041;-77
2020/12/19 09:21:25;;;;;;;12.57;5.88;;;6.60;99.90;;;;;;5064461;28;20024;-78
2020/12/19 09:23:54;;;;;;;12.32;5.22;;;6.80;99.90;;;;;;5067181;28;20025;-79
2020/12/19 09:26:23;;;;;;;10.55;6.15;;;6.90;99.90;;;;;;5065553;28;20025;-79
2020/12/19 09:28:49;;;;;;;14.88;6.22;;;7.10;99.90;;;;;;5064569;28;20092;-78
2020/12/19 09:31:15;;;;;;;12.80;6.28;;;7.30;99.90;;;;;;5064789;28;20035;-77
2020/12/19 09:33:40;;;;;;;11.93;5.88;;;7.50;99.90;;;;;;5064675;28;20028;-78
2020/12/19 09:36:06;;;;;;;15.05;6.53;;;7.50;99.90;;;;;;5064686;28;20462;-77
2020/12/19 09:38:31;;;;;;;13.88;6.32;;;7.70;99.90;;;;;;5064435;28;20044;-79
2020/12/19 09:40:57;;;;;;;21.25;8.38;;;7.90;99.90;;;;;;5064813;28;20107;-78
2020/12/19 09:43:22;;;;;;;12.75;5.93;;;8.10;99.90;;;;;;5066322;28;20351;-79
2020/12/19 09:45:48;;;;;;;14.63;6.68;;;8.20;99.90;;;;;;5065028;28;20097;-80
2020/12/19 09:48:14;;;;;;;12.15;5.82;;;8.30;99.90;;;;;;5064766;28;20075;-76
2020/12/19 09:50:39;;;;;;;15.73;6.65;;;8.50;99.90;;;;;;5064847;28;20079;-77
2020/12/19 09:53:05;;;;;;;14.18;6.78;;;8.70;99.90;;;;;;5061268;28;20036;-79
2020/12/19 09:55:32;;;;;;;11.57;5.70;;;9.00;99.90;;;;;;5045898;28;20024;-78
2020/12/19 09:57:57;;;;;;;15.27;6.18;;;9.20;99.90;;;;;;5045843;28;20033;-78
2020/12/19 10:00:23;;;;;;;12.95;5.75;;;9.40;99.90;;;;;;5044541;28;20027;-79
2020/12/19 10:02:54;;;;;;;12.70;7.00;;;9.50;99.90;;;;;;5044863;28;20030;-78
2020/12/19 10:05:21;;;;;;;15.45;7.75;;;9.50;99.90;;;;;;5045865;28;20535;-79
2020/12/19 10:07:47;;;;;;;15.38;5.72;;;9.60;99.90;;;;;;5061149;28;20029;-78
2020/12/19 10:10:12;;;;;;;12.40;5.75;;;9.70;99.90;;;;;;5045697;28;20025;-77
2020/12/19 10:12:38;;;;;;;15.77;6.15;;;9.90;99.90;;;;;;5044159;28;20022;-77
2020/12/19 10:15:07;;;;;;;12.40;6.07;;;10.20;99.90;;;;;;5044716;28;20051;-77
2020/12/19 10:17:33;;;;;;;13.45;5.60;;;10.40;99.90;;;;;;5042704;28;20342;-78
2020/12/19 10:19:59;;;;;;;14.10;6.20;;;10.50;99.90;;;;;;5044917;28;20018;-79
2020/12/19 10:22:25;;;;;;;10.98;6.15;;;10.60;99.90;;;;;;5043719;28;20025;-78
2020/12/19 10:24:51;;;;;;;14.18;6.35;;;10.80;99.90;;;;;;5043988;28;20366;-80
2020/12/19 10:27:17;;;;;;;10.13;5.20;;;11.00;99.90;;;;;;5045741;28;20037;-78
2020/12/19 10:29:42;;;;;;;12.02;5.68;;;11.10;99.90;;;;;;5045403;28;20036;-77
2020/12/19 10:32:12;;;;;;;11.82;5.80;;;11.30;99.90;;;;;;5043746;28;20056;-78
2020/12/19 10:34:39;;;;;;;13.38;6.80;;;11.50;99.90;;;;;;5043984;28;20503;-76
2020/12/19 10:37:05;;;;;;;9.15;4.78;;;11.70;99.90;;;;;;5045369;28;20100;-78
2020/12/19 10:39:30;;;;;;;11.85;5.97;;;11.80;99.90;;;;;;5045216;28;20033;-78
2020/12/19 10:41:57;;;;;;;9.80;5.13;;;11.90;99.90;;;;;;5045450;28;20030;-77
2020/12/19 10:44:23;;;;;;;10.77;4.78;;;12.20;99.90;;;;;;5045314;28;20519;-78
2020/12/19 10:46:50;;;;;;;10.88;5.38;;;12.30;99.90;;;;;;5045337;28;20013;-79
2020/12/19 10:49:16;;;;;;;7.38;4.35;;;12.50;99.90;;;;;;5060531;28;20026;-77
2020/12/19 10:51:42;;;;;;;12.48;5.65;;;12.70;99.90;;;;;;5045281;28;20025;-78
2020/12/19 10:54:07;;;;;;;14.07;5.85;;;12.90;99.90;;;;;;5045225;28;20022;-77
2020/12/19 10:56:33;;;;;;;10.48;5.00;;;13.10;99.90;;;;;;5044128;28;20480;-76
2020/12/19 10:58:58;;;;;;;9.57;5.47;;;13.50;99.90;;;;;;5044585;28;20052;-76
2020/12/19 11:01:24;;;;;;;12.73;5.45;;;13.60;99.90;;;;;;5043536;28;20040;-76
2020/12/19 11:03:59;;;;;;;8.65;4.85;;;13.50;99.90;;;;;;5043451;28;20022;-76
2020/12/19 11:06:26;;;;;;;12.82;5.97;;;13.60;99.90;;;;;;5043256;28;20029;-77
2020/12/19 11:08:59;;;;;;;13.82;6.68;;;13.50;99.90;;;;;;5043418;28;20025;-79
2020/12/19 11:11:25;;;;;;;11.68;5.43;;;13.30;99.90;;;;;;5044537;28;20085;-76
2020/12/19 11:13:51;;;;;;;8.52;4.78;;;13.20;99.90;;;;;;5059852;28;20036;-78
2020/12/19 11:16:24;;;;;;;10.80;5.50;;;13.10;99.90;;;;;;5045098;28;20081;-76
2020/12/19 11:18:53;;;;;;;7.57;4.57;;;13.10;99.90;;;;;;5043348;28;20097;-78
2020/12/19 11:21:20;;;;;;;10.27;5.10;;;13.40;99.90;;;;;;5043388;28;20025;-78
2020/12/19 11:23:46;;;;;;;7.88;4.57;;;13.50;99.90;;;;;;5059891;28;20026;-76
2020/12/19 11:26:12;;;;;;;10.65;4.88;;;13.60;99.90;;;;;;5043249;28;20059;-74
2020/12/19 11:28:39;;;;;;;10.88;4.88;;;13.80;99.90;;;;;;5042911;28;20052;-75
2020/12/19 11:31:05;;;;;;;8.93;5.18;;;13.90;99.90;;;;;;5043004;28;20025;-76
2020/12/19 11:33:31;;;;;;;10.13;4.88;;;14.20;99.90;;;;;;5042879;28;20018;-76
2020/12/19 11:36:01;;;;;;;7.93;4.78;;;14.40;99.90;;;;;;5059680;28;20025;-77
2020/12/19 11:38:28;;;;;;;8.85;5.30;;;14.40;99.90;;;;;;5055046;28;20041;-76
2020/12/19 11:40:54;;;;;;;9.10;4.57;;;14.40;99.90;;;;;;5062967;28;20515;-75
2020/12/19 11:43:20;;;;;;;10.32;5.38;;;14.40;99.90;;;;;;5065973;28;20016;-78
2020/12/19 11:45:46;;;;;;;10.80;5.07;;;14.40;99.90;;;;;;5068417;28;20132;-78
2020/12/19 11:48:11;;;;;;;11.45;5.28;;;14.40;99.90;;;;;;5068341;28;20029;-77
2020/12/19 11:50:37;;;;;;;11.45;5.13;;;14.40;99.90;;;;;;5068288;28;20036;-78
2020/12/19 11:53:03;;;;;;;8.75;5.05;;;14.70;99.90;;;;;;5067018;28;20116;-76
2020/12/19 11:55:29;;;;;;;11.38;5.35;;;14.90;99.90;;;;;;5067255;28;20025;-77
2020/12/19 11:57:55;;;;;;;9.60;5.03;;;15.40;99.90;;;;;;5065652;28;20037;-79
2020/12/19 12:00:21;;;;;;;10.50;5.38;;;15.70;99.90;;;;;;5067097;28;20025;-80
2020/12/19 12:02:46;;;;;;;9.55;4.80;;;15.70;99.90;;;;;;5067406;28;20031;-79
2020/12/19 12:05:12;;;;;;;11.50;5.63;;;16.00;99.90;;;;;;5066114;28;20063;-80
2020/12/19 12:07:38;;;;;;;11.40;5.43;;;16.00;99.90;;;;;;5067025;28;20858;-82
2020/12/19 12:10:04;;;;;;;12.38;5.85;;;16.00;99.90;;;;;;5067504;28;20021;-81
2020/12/19 12:12:29;;;;;;;11.63;5.22;;;16.10;99.90;;;;;;5065818;28;20020;-78
2020/12/19 12:14:55;;;;;;;12.82;4.78;;;16.10;99.90;;;;;;5067935;28;20017;-81
2020/12/19 12:17:21;;;;;;;9.75;4.45;;;16.20;99.90;;;;;;5065696;28;20384;-81
2020/12/19 12:19:46;;;;;;;6.97;4.35;;;16.30;99.90;;;;;;5066177;28;20028;-80
2020/12/19 12:22:12;;;;;;;8.52;4.10;;;16.30;99.90;;;;;;5065965;28;20041;-80
2020/12/19 12:24:38;;;;;;;9.77;5.20;;;16.20;99.90;;;;;;5065549;28;20071;-80
2020/12/19 12:27:03;;;;;;;10.85;4.97;;;15.90;99.90;;;;;;5066236;28;20031;-79
2020/12/19 12:29:29;;;;;;;9.10;4.35;;;15.90;99.90;;;;;;5067357;28;20123;-80
2020/12/19 12:31:55;;;;;;;11.15;4.82;;;15.80;99.90;;;;;;5065115;28;20021;-77
2020/12/19 12:34:20;;;;;;;10.38;5.25;;;15.70;99.90;;;;;;5066355;28;20025;-79
2020/12/19 12:36:46;;;;;;;11.60;5.18;;;15.70;99.90;;;;;;5067960;28;20025;-77
2020/12/19 12:39:12;;;;;;;9.48;4.72;;;15.70;99.90;;;;;;5065316;28;20033;-77
2020/12/19 12:41:38;;;;;;;5.55;3.67;;;15.60;99.90;;;;;;5065489;28;20024;-78
2020/12/19 12:44:04;;;;;;;8.57;4.72;;;;;;;;;;5065411;28;20032;-79
2020/12/19 12:46:30;;;;;;;8.48;4.40;;;15.70;99.90;;;;;;5065602;28;20024;-78
2020/12/19 12:48:56;;;;;;;7.30;4.50;;;15.80;99.90;;;;;;5066859;28;20025;-77